Time;durP1;ratioP1;P1;durP2;ratioP2;P2;SDS_P1;SDS_P2;PMS_P1;PMS_P2;Temp;Humidity;BMP_temperature;BMP_pressure;BME280_temperature;BME280_humidity;BME280_pressure;Samples;Min_cycle;Max_cycle;Signal;HPM_P1;HPM_P2
2022/12/17 13:08:18;;;;;;;;;;;;;;;;;;4888161;29;1453;-76
2022/12/17 13:10:46;;;;;;;;;;;;;;;;;;4841493;29;1426;-74
2022/12/17 13:13:16;;;;;;;;;;;;;;;;;;4863206;29;1328;-76
2022/12/17 13:15:43;;;;;;;;;;;;;;;;;;4824568;29;1334;-78
2022/12/17 13:18:16;;;;;;;;;;;;;;;;;;4818197;29;1064;-76
2022/12/17 13:20:42;;;;;;;;;;;;;;;;;;4851112;29;1602;-77
2022/12/17 13:23:26;;;;;;;;;;;;;;;;;;4837048;29;2008;-76
2022/12/17 13:26:10;;;;;;;;;;;;;;;;;;4835161;29;1461;-72
2022/12/17 13:28:37;;;;;;;;;;;;;;;;;;4847057;29;1321;-74
2022/12/17 13:31:04;;;;;;;;;;;;;;;;;;4845954;29;1332;-72
2022/12/17 13:33:31;;;;;;;;;;;;;;;;;;4842014;29;1073;-71
2022/12/17 13:36:02;;;;;;;;;;;;;;;;;;4857197;29;1437;-72
2022/12/17 13:38:31;;;;;;;;;;;;;;;;;;4854322;29;2118;-73
2022/12/17 13:41:01;;;;;;;;;;;;;;;;;;4855292;28;1996;-73
2022/12/17 13:43:31;;;;;;;;;;;;;;;;;;4865847;28;1001;-74
2022/12/17 13:45:58;;;;;;;;;;;;;;;;;;4860041;28;1358;-72
2022/12/17 13:48:25;;;;;;;;;;;;;;;;;;4834566;29;1430;-74
2022/12/17 13:50:55;;;;;;;;;;;;;;;;;;4819583;29;1155;-74
2022/12/17 13:53:21;;;;;;;;;;;;;;;;;;4832949;29;789;-74
2022/12/17 13:55:50;;;;;;;;;;;;;;;;;;4836484;29;2164;-74
2022/12/17 13:58:23;;;;;;;;;;;;;;;;;;4840094;29;1559;-74
2022/12/17 14:00:51;;;;;;;;;;;;;;;;;;4833907;29;1115;-74
2022/12/17 14:03:19;;;;;;;;;;;;;;;;;;4858827;29;1934;-72
2022/12/17 14:05:46;;;;;;;;;;;;;;;;;;4837729;29;1397;-74
2022/12/17 14:08:13;;;;;;;;;;;;;;;;;;4843160;29;1249;-73
2022/12/17 14:10:43;;;;;;;;;;;;;;;;;;4839221;29;1264;-74
2022/12/17 14:13:10;;;;;;;;;;;;;;;;;;4842832;29;800;-73
2022/12/17 14:15:37;;;;;;;;;;;;;;;;;;4844954;29;1378;-74
2022/12/17 14:18:05;;;;;;;;;;;;;;;;;;4839207;29;1441;-72
2022/12/17 14:20:32;;;;;;;;;;;;;;;;;;4855768;28;1773;-74
2022/12/17 14:23:00;;;;;;;;;;;;;;;;;;4842757;29;1943;-73
2022/12/17 14:25:27;;;;;;;;;;;;;;;;;;4847171;29;1381;-72
2022/12/17 14:27:54;;;;;;;;;;;;;;;;;;4849201;28;1230;-74
2022/12/17 14:30:22;;;;;;;;;;;;;;;;;;4850737;28;1473;-74
2022/12/17 14:32:49;;;;;;;;;;;;;;;;;;4842183;29;1511;-74
2022/12/17 14:35:24;;;;;;;;;;;;;;;;;;4846216;29;1268;-72
2022/12/17 14:37:51;;;;;;;;;;;;;;;;;;4843682;29;1151;-74
2022/12/17 14:40:18;;;;;;;;;;;;;;;;;;4867260;29;1390;-72
2022/12/17 14:42:45;;;;;;;;;;;;;;;;;;4938589;29;1973;-71
2022/12/17 14:45:21;;;;;;;;;;;;;;;;;;4940436;28;1330;-72
2022/12/17 14:47:52;;;;;;;;;;;;;;;;;;4949885;28;1138;-72
2022/12/17 14:50:26;;;;;;;;;;;;;;;;;;4951133;28;795;-72
2022/12/17 14:52:52;;;;;;;;;;;;;;;;;;4934871;29;1381;-72
2022/12/17 14:55:26;;;;;;;;;;;;;;;;;;4931254;29;1406;-71
2022/12/17 14:57:53;;;;;;;;;;;;;;;;;;4941954;29;1352;-71
2022/12/17 15:00:20;;;;;;;;;;;;;;;;;;4961222;28;1259;-71
2022/12/17 15:02:48;;;;;;;;;;;;;;;;;;4953565;28;1974;-71
2022/12/17 15:05:14;;;;;;;;;;;;;;;;;;4935477;29;1310;-71
2022/12/17 15:07:42;;;;;;;;;;;;;;;;;;4943306;29;1177;-71
2022/12/17 15:10:09;;;;;;;;;;;;;;;;;;4935369;29;1236;-71
2022/12/17 15:12:35;;;;;;;;;;;;;;;;;;4934644;29;1072;-72
2022/12/17 15:15:01;;;;;;;;;;;;;;;;;;4934094;29;1448;-71
2022/12/17 15:17:27;;;;;;;;;;;;;;;;;;4935225;29;973;-71
2022/12/17 15:19:54;;;;;;;;;;;;;;;;;;4934877;29;1053;-71
2022/12/17 15:22:20;;;;;;;;;;;;;;;;;;4932614;29;1914;-71
2022/12/17 15:24:48;;;;;;;;;;;;;;;;;;4933630;29;1300;-71
2022/12/17 15:27:15;;;;;;;;;;;;;;;;;;4935201;29;867;-71
2022/12/17 15:29:41;;;;;;;;;;;;;;;;;;4933826;29;1122;-71
2022/12/17 15:32:07;;;;;;;;;;;;;;;;;;4934120;29;1255;-71
2022/12/17 15:34:33;;;;;;;;;;;;;;;;;;4935076;29;1286;-71
2022/12/17 15:37:00;;;;;;;;;;;;;;;;;;4942688;29;1104;-71
2022/12/17 15:39:28;;;;;;;;;;;;;;;;;;4945878;28;1166;-71
2022/12/17 15:44:39;;;;;;;;;;;;;;;;;;4953402;28;1316;-71
2022/12/17 15:47:06;;;;;;;;;;;;;;;;;;4944103;29;1422;-71
2022/12/17 15:49:32;;;;;;;;;;;;;;;;;;4940423;28;1318;-73
2022/12/17 15:51:58;;;;;;;;;;;;;;;;;;4942570;29;1321;-71
2022/12/17 15:54:25;;;;;;;;;;;;;;;;;;4871411;29;1467;-72
2022/12/17 15:56:52;;;;;;;;;;;;;;;;;;4835384;29;1377;-73
2022/12/17 15:59:20;;;;;;;;;;;;;;;;;;4861714;29;1391;-73
2022/12/17 16:01:47;;;;;;;;;;;;;;;;;;4864558;28;1939;-74
2022/12/17 16:04:13;;;;;;;;;;;;;;;;;;4844469;29;1466;-75
2022/12/17 16:06:40;;;;;;;;;;;;;;;;;;4867890;28;980;-74
2022/12/17 16:09:06;;;;;;;;;;;;;;;;;;4883253;28;1580;-72
2022/12/17 16:11:33;;;;;;;;;;;;;;;;;;4832021;29;1041;-75
2022/12/17 16:14:00;;;;;;;;;;;;;;;;;;4846262;29;1295;-71
2022/12/17 16:16:29;;;;;;;;;;;;;;;;;;4839393;29;1095;-72
2022/12/17 16:18:55;;;;;;;;;;;;;;;;;;4842629;29;855;-73
2022/12/17 16:21:22;;;;;;;;;;;;;;;;;;4844109;29;898;-73
2022/12/17 16:23:49;;;;;;;;;;;;;;;;;;4824618;29;1946;-74
2022/12/17 16:26:16;;;;;;;;;;;;;;;;;;4827758;29;1424;-73
2022/12/17 16:28:42;;;;;;;;;;;;;;;;;;4848378;29;1082;-73
2022/12/17 16:31:10;;;;;;;;;;;;;;;;;;4848143;29;1691;-74
2022/12/17 16:33:38;;;;;;;;;;;;;;;;;;4858666;29;989;-74
2022/12/17 16:36:06;;;;;;;;;;;;;;;;;;4846000;29;1275;-73
2022/12/17 16:38:32;;;;;;;;;;;;;;;;;;4840094;29;1406;-73
2022/12/17 16:41:00;;;;;;;;;;;;;;;;;;4848039;29;1030;-73
2022/12/17 16:43:26;;;;;;;;;;;;;;;;;;4844232;29;1942;-73
2022/12/17 16:45:53;;;;;;;;;;;;;;;;;;4842907;29;1283;-73
2022/12/17 16:48:20;;;;;;;;;;;;;;;;;;4862469;28;1504;-74
2022/12/17 16:50:48;;;;;;;;;;;;;;;;;;4844874;29;1555;-73
2022/12/17 16:53:15;;;;;;;;;;;;;;;;;;4860428;29;1260;-73
2022/12/17 16:55:43;;;;;;;;;;;;;;;;;;4845120;29;1541;-73
2022/12/17 16:58:10;;;;;;;;;;;;;;;;;;4844305;29;894;-73
2022/12/17 17:00:37;;;;;;;;;;;;;;;;;;4848626;29;1076;-71
2022/12/17 17:03:03;;;;;;;;;;;;;;;;;;4848898;29;1992;-73
2022/12/17 17:05:31;;;;;;;;;;;;;;;;;;4843355;29;1561;-73
2022/12/17 17:07:59;;;;;;;;;;;;;;;;;;4857877;28;1264;-72
2022/12/17 17:10:26;;;;;;;;;;;;;;;;;;4844602;29;1444;-71
2022/12/17 17:12:53;;;;;;;;;;;;;;;;;;4848377;29;1641;-73
2022/12/17 17:15:19;;;;;;;;;;;;;;;;;;4840618;29;1475;-73
2022/12/17 17:17:46;;;;;;;;;;;;;;;;;;4850352;29;740;-73
2022/12/17 17:20:13;;;;;;;;;;;;;;;;;;4847157;29;831;-73
2022/12/17 17:22:39;;;;;;;;;;;;;;;;;;4841440;29;1930;-75
2022/12/17 17:25:08;;;;;;;;;;;;;;;;;;4879104;28;1373;-73
2022/12/17 17:27:34;;;;;;;;;;;;;;;;;;4857205;29;1304;-73
2022/12/17 17:30:01;;;;;;;;;;;;;;;;;;4856846;29;1635;-74
2022/12/17 17:32:27;;;;;;;;;;;;;;;;;;4841708;29;1264;-73
2022/12/17 17:34:54;;;;;;;;;;;;;;;;;;4845541;29;1370;-74
2022/12/17 17:37:21;;;;;;;;;;;;;;;;;;4833916;29;993;-74
2022/12/17 17:39:48;;;;;;;;;;;;;;;;;;4818199;29;1608;-71
2022/12/17 17:42:16;;;;;;;;;;;;;;;;;;4860538;29;1993;-73
2022/12/17 17:44:42;;;;;;;;;;;;;;;;;;4840116;29;1508;-73
2022/12/17 17:47:09;;;;;;;;;;;;;;;;;;4832564;29;1244;-73
2022/12/17 17:49:36;;;;;;;;;;;;;;;;;;4837453;29;820;-74
2022/12/17 17:52:03;;;;;;;;;;;;;;;;;;4839100;29;1791;-74
2022/12/17 17:54:29;;;;;;;;;;;;;;;;;;4847794;29;1366;-74
2022/12/17 17:56:56;;;;;;;;;;;;;;;;;;4841362;29;1117;-74
2022/12/17 17:59:23;;;;;;;;;;;;;;;;;;4840165;29;1161;-74
2022/12/17 18:01:50;;;;;;;;;;;;;;;;;;4833692;29;1428;-75
2022/12/17 18:04:18;;;;;;;;;;;;;;;;;;4848930;29;1950;-75
2022/12/17 18:06:45;;;;;;;;;;;;;;;;;;4821285;29;808;-75
2022/12/17 18:09:12;;;;;;;;;;;;;;;;;;4835085;29;969;-75
2022/12/17 18:11:39;;;;;;;;;;;;;;;;;;4837572;29;764;-74
2022/12/17 18:14:05;;;;;;;;;;;;;;;;;;4842490;29;1287;-74
2022/12/17 18:16:35;;;;;;;;;;;;;;;;;;4852110;29;1383;-73
2022/12/17 18:19:03;;;;;;;;;;;;;;;;;;4851948;29;978;-75
2022/12/17 18:21:30;;;;;;;;;;;;;;;;;;4891678;28;1632;-72
2022/12/17 18:23:58;;;;;;;;;;;;;;;;;;4833241;29;2036;-75
2022/12/17 18:26:25;;;;;;;;;;;;;;;;;;4838267;29;1300;-75
2022/12/17 18:28:52;;;;;;;;;;;;;;;;;;4837977;29;1591;-75
2022/12/17 18:31:19;;;;;;;;;;;;;;;;;;4842340;29;800;-75
2022/12/17 18:33:48;;;;;;;;;;;;;;;;;;4841669;29;1470;-75
2022/12/17 18:36:15;;;;;;;;;;;;;;;;;;4844994;29;1350;-75
2022/12/17 18:38:42;;;;;;;;;;;;;;;;;;4844902;29;800;-74
2022/12/17 18:43:50;;;;;;;;;;;;;;;;;;4838763;29;1942;-74
2022/12/17 18:46:17;;;;;;;;;;;;;;;;;;4842539;29;765;-74
2022/12/17 18:48:43;;;;;;;;;;;;;;;;;;4836380;29;1080;-73
2022/12/17 18:51:11;;;;;;;;;;;;;;;;;;4838878;29;1295;-73
2022/12/17 18:53:38;;;;;;;;;;;;;;;;;;4843859;29;872;-73
2022/12/17 18:56:07;;;;;;;;;;;;;;;;;;4838521;29;1362;-73
2022/12/17 18:58:33;;;;;;;;;;;;;;;;;;4836063;29;1564;-72
2022/12/17 19:01:00;;;;;;;;;;;;;;;;;;4834465;29;1620;-73
2022/12/17 19:03:26;;;;;;;;;;;;;;;;;;4846703;29;1997;-73
2022/12/17 19:05:53;;;;;;;;;;;;;;;;;;4848536;29;1391;-72
2022/12/17 19:08:21;;;;;;;;;;;;;;;;;;4837217;29;1061;-74
2022/12/17 19:10:48;;;;;;;;;;;;;;;;;;4861335;28;954;-73
2022/12/17 19:13:14;;;;;;;;;;;;;;;;;;4842675;29;1363;-73
2022/12/17 19:15:41;;;;;;;;;;;;;;;;;;4841164;29;1390;-73
2022/12/17 19:18:07;;;;;;;;;;;;;;;;;;4827298;29;1569;-73
2022/12/17 19:20:34;;;;;;;;;;;;;;;;;;4829874;29;1755;-73
2022/12/17 19:23:00;;;;;;;;;;;;;;;;;;4869054;28;1987;-74
2022/12/17 19:25:28;;;;;;;;;;;;;;;;;;4841810;29;1707;-73
2022/12/17 19:27:55;;;;;;;;;;;;;;;;;;4840992;29;1537;-73
2022/12/17 19:30:21;;;;;;;;;;;;;;;;;;4843684;28;1451;-72
2022/12/17 19:32:48;;;;;;;;;;;;;;;;;;4859497;29;1169;-73
2022/12/17 19:35:14;;;;;;;;;;;;;;;;;;4848902;28;1430;-75
2022/12/17 19:37:41;;;;;;;;;;;;;;;;;;4860209;28;1797;-75
2022/12/17 19:40:08;;;;;;;;;;;;;;;;;;4845438;29;1566;-75
2022/12/17 19:42:36;;;;;;;;;;;;;;;;;;4845524;29;1700;-75
2022/12/17 19:45:03;;;;;;;;;;;;;;;;;;4846495;29;1993;-75
2022/12/17 19:47:30;;;;;;;;;;;;;;;;;;4850164;29;1466;-75
2022/12/17 19:49:56;;;;;;;;;;;;;;;;;;4853721;29;1066;-75
2022/12/17 19:52:23;;;;;;;;;;;;;;;;;;4848973;29;856;-75
2022/12/17 19:54:49;;;;;;;;;;;;;;;;;;4847930;29;1537;-75
2022/12/17 19:57:16;;;;;;;;;;;;;;;;;;4844361;29;1007;-75
2022/12/17 19:59:44;;;;;;;;;;;;;;;;;;4858631;28;1457;-75
2022/12/17 20:02:11;;;;;;;;;;;;;;;;;;4858848;29;1435;-73
2022/12/17 20:04:37;;;;;;;;;;;;;;;;;;4838550;29;2002;-73
2022/12/17 20:07:04;;;;;;;;;;;;;;;;;;4842398;29;1020;-73
2022/12/17 20:09:30;;;;;;;;;;;;;;;;;;4856065;28;870;-73
2022/12/17 20:11:58;;;;;;;;;;;;;;;;;;4864175;29;796;-73
2022/12/17 20:14:27;;;;;;;;;;;;;;;;;;4863129;28;1291;-73
2022/12/17 20:16:56;;;;;;;;;;;;;;;;;;4849151;29;1474;-73
2022/12/17 20:19:23;;;;;;;;;;;;;;;;;;4845765;29;1395;-73
2022/12/17 20:21:50;;;;;;;;;;;;;;;;;;4858890;28;997;-73
2022/12/17 20:24:17;;;;;;;;;;;;;;;;;;4849730;29;1926;-74
2022/12/17 20:26:44;;;;;;;;;;;;;;;;;;4842856;29;1801;-73
2022/12/17 20:29:10;;;;;;;;;;;;;;;;;;4857865;28;1286;-73
2022/12/17 20:31:37;;;;;;;;;;;;;;;;;;4839542;29;1537;-74
2022/12/17 20:34:07;;;;;;;;;;;;;;;;;;4854949;28;1442;-74
2022/12/17 20:36:34;;;;;;;;;;;;;;;;;;4837640;29;1331;-73
2022/12/17 20:39:01;;;;;;;;;;;;;;;;;;4846000;29;1381;-73
2022/12/17 20:41:28;;;;;;;;;;;;;;;;;;4840317;29;1635;-73
2022/12/17 20:43:55;;;;;;;;;;;;;;;;;;4847119;29;1930;-73
2022/12/17 20:46:22;;;;;;;;;;;;;;;;;;4853399;29;994;-72
2022/12/17 20:48:49;;;;;;;;;;;;;;;;;;4860920;28;1676;-73
2022/12/17 20:51:18;;;;;;;;;;;;;;;;;;4848691;29;1163;-74
2022/12/17 20:53:44;;;;;;;;;;;;;;;;;;4852971;28;610;-73
2022/12/17 20:56:12;;;;;;;;;;;;;;;;;;4843152;29;1205;-73
2022/12/17 20:58:38;;;;;;;;;;;;;;;;;;4836159;29;1608;-73
2022/12/17 21:01:06;;;;;;;;;;;;;;;;;;4853032;28;1491;-73
2022/12/17 21:03:33;;;;;;;;;;;;;;;;;;4824270;29;1994;-74
2022/12/17 21:06:04;;;;;;;;;;;;;;;;;;4846130;29;1537;-74
2022/12/17 21:08:33;;;;;;;;;;;;;;;;;;4829396;29;1532;-75
2022/12/17 21:10:59;;;;;;;;;;;;;;;;;;4829173;29;1103;-75
2022/12/17 21:13:29;;;;;;;;;;;;;;;;;;4839682;29;1063;-74
2022/12/17 21:15:55;;;;;;;;;;;;;;;;;;4841607;29;1260;-74
2022/12/17 21:18:22;;;;;;;;;;;;;;;;;;4839649;29;736;-74
2022/12/17 21:20:54;;;;;;;;;;;;;;;;;;4844022;29;740;-74
2022/12/17 21:23:20;;;;;;;;;;;;;;;;;;4839438;29;978;-74
2022/12/17 21:25:48;;;;;;;;;;;;;;;;;;4837882;29;2022;-74
2022/12/17 21:28:15;;;;;;;;;;;;;;;;;;4834698;29;1748;-74
2022/12/17 21:30:42;;;;;;;;;;;;;;;;;;4839611;29;938;-74
2022/12/17 21:33:09;;;;;;;;;;;;;;;;;;4839579;29;756;-75
2022/12/17 21:35:35;;;;;;;;;;;;;;;;;;4835351;29;1357;-74
2022/12/17 21:38:02;;;;;;;;;;;;;;;;;;4836436;29;863;-74
2022/12/17 21:40:29;;;;;;;;;;;;;;;;;;4835938;29;1687;-74
2022/12/17 21:43:03;;;;;;;;;;;;;;;;;;4838690;29;887;-74
2022/12/17 21:45:34;;;;;;;;;;;;;;;;;;4837847;29;1939;-75
2022/12/17 21:48:00;;;;;;;;;;;;;;;;;;4840542;29;938;-75
2022/12/17 21:50:27;;;;;;;;;;;;;;;;;;4837127;29;911;-74
2022/12/17 21:52:53;;;;;;;;;;;;;;;;;;4834301;29;1207;-74
2022/12/17 21:55:20;;;;;;;;;;;;;;;;;;4838978;29;1275;-75
2022/12/17 21:57:47;;;;;;;;;;;;;;;;;;4847816;29;771;-75
2022/12/17 22:00:16;;;;;;;;;;;;;;;;;;4827278;29;1110;-75
2022/12/17 22:02:43;;;;;;;;;;;;;;;;;;4846068;29;899;-75
2022/12/17 22:05:09;;;;;;;;;;;;;;;;;;4841107;29;2006;-76
2022/12/17 22:07:36;;;;;;;;;;;;;;;;;;4841366;29;1175;-75
2022/12/17 22:10:03;;;;;;;;;;;;;;;;;;4840107;29;1521;-76
2022/12/17 22:15:16;;;;;;;;;;;;;;;;;;4840413;29;1488;-76
2022/12/17 22:17:42;;;;;;;;;;;;;;;;;;4849485;29;1013;-75
2022/12/17 22:20:10;;;;;;;;;;;;;;;;;;4853475;29;1178;-75
2022/12/17 22:22:36;;;;;;;;;;;;;;;;;;4821446;29;1091;-75
2022/12/17 22:25:03;;;;;;;;;;;;;;;;;;4821294;29;2220;-77
2022/12/17 22:27:30;;;;;;;;;;;;;;;;;;4912122;29;721;-72
2022/12/17 22:33:01;;;;;;;;;;;;;;;;;;4916350;29;927;-73
2022/12/17 22:35:27;;;;;;;;;;;;;;;;;;4924029;29;1392;-73
2022/12/17 22:37:53;;;;;;;;;;;;;;;;;;4935628;29;1486;-73
2022/12/17 22:40:21;;;;;;;;;;;;;;;;;;4934923;29;1126;-74
2022/12/17 22:45:31;;;;;;;;;;;;;;;;;;4935643;29;1979;-73
2022/12/17 22:47:58;;;;;;;;;;;;;;;;;;4942885;28;1204;-73
2022/12/17 22:50:25;;;;;;;;;;;;;;;;;;4947605;28;1053;-74
2022/12/17 22:52:51;;;;;;;;;;;;;;;;;;4953037;28;1176;-74
2022/12/17 22:55:17;;;;;;;;;;;;;;;;;;4949084;28;1766;-73
2022/12/17 22:57:43;;;;;;;;;;;;;;;;;;4935497;29;1133;-74
2022/12/17 23:00:11;;;;;;;;;;;;;;;;;;4943835;28;1172;-73
2022/12/17 23:02:37;;;;;;;;;;;;;;;;;;4939317;28;1536;-73
2022/12/17 23:05:05;;;;;;;;;;;;;;;;;;4935597;29;1907;-72
2022/12/17 23:07:31;;;;;;;;;;;;;;;;;;4934713;29;1225;-71
2022/12/17 23:09:58;;;;;;;;;;;;;;;;;;4935598;29;1117;-72
2022/12/17 23:15:08;;;;;;;;;;;;;;;;;;4933953;29;1447;-71
2022/12/17 23:17:34;;;;;;;;;;;;;;;;;;4940551;28;1143;-71
2022/12/17 23:20:01;;;;;;;;;;;;;;;;;;4946539;29;1097;-71
2022/12/17 23:22:28;;;;;;;;;;;;;;;;;;4953591;28;1053;-71
2022/12/17 23:24:54;;;;;;;;;;;;;;;;;;4952957;28;1911;-71
2022/12/17 23:27:20;;;;;;;;;;;;;;;;;;4934828;29;1085;-72
2022/12/17 23:29:47;;;;;;;;;;;;;;;;;;4943184;29;1105;-71
2022/12/17 23:32:13;;;;;;;;;;;;;;;;;;4953023;28;1155;-71
2022/12/17 23:34:39;;;;;;;;;;;;;;;;;;4954261;28;1224;-72
2022/12/17 23:37:05;;;;;;;;;;;;;;;;;;4954343;28;1061;-71
2022/12/17 23:39:33;;;;;;;;;;;;;;;;;;4951014;28;1041;-71
2022/12/17 23:41:59;;;;;;;;;;;;;;;;;;4916899;29;1168;-72
2022/12/17 23:44:25;;;;;;;;;;;;;;;;;;4915640;29;1906;-72
2022/12/17 23:46:51;;;;;;;;;;;;;;;;;;4921664;29;883;-71
2022/12/17 23:49:18;;;;;;;;;;;;;;;;;;4945571;28;1112;-72
2022/12/17 23:51:44;;;;;;;;;;;;;;;;;;4952048;28;1130;-73
2022/12/17 23:54:10;;;;;;;;;;;;;;;;;;4954270;28;1328;-72
2022/12/17 23:56:38;;;;;;;;;;;;;;;;;;4954247;28;903;-72
2022/12/17 23:59:06;;;;;;;;;;;;;;;;;;4953241;28;960;-72
